Time;durP1;ratioP1;P1;durP2;ratioP2;P2;SDS_P1;SDS_P2;PMS_P1;PMS_P2;Temp;Humidity;BMP_temperature;BMP_pressure;BME280_temperature;BME280_humidity;BME280_pressure;Samples;Min_cycle;Max_cycle;Signal;HPM_P1;HPM_P2
2023/03/18 00:00:34;;;;;;;8.65;3.30;;;13.60;75.60;;;13.02;59.78;99826.78;5040286;28;20497;-88
2023/03/18 00:03:01;;;;;;;7.72;3.08;;;13.80;75.50;;;13.01;59.75;99827.84;5024766;28;20508;-87
2023/03/18 00:05:28;;;;;;;7.25;2.72;;;13.60;75.40;;;13.01;59.45;99824.34;5047178;28;20051;-88
2023/03/18 00:07:55;;;;;;;8.35;3.13;;;13.60;75.20;;;13.01;60.02;99819.00;5026372;28;20457;-88
2023/03/18 00:10:24;;;;;;;11.63;3.05;;;13.60;75.80;;;13.01;59.91;99824.34;5046397;28;20048;-88
2023/03/18 00:12:52;;;;;;;6.88;2.90;;;13.60;75.90;;;12.99;59.57;99811.22;5047335;28;20037;-88
2023/03/18 00:15:20;;;;;;;10.43;3.35;;;13.60;75.40;;;13.00;60.08;99812.03;5044363;28;20137;-88
2023/03/18 00:17:48;;;;;;;10.40;3.22;;;13.60;75.80;;;12.99;59.91;99815.78;5027821;28;20056;-88
2023/03/18 00:20:17;;;;;;;8.35;3.13;;;13.60;75.60;;;13.00;59.61;99812.03;5047980;28;20049;-88
2023/03/18 00:22:45;;;;;;;10.07;3.40;;;13.60;75.20;;;13.00;59.39;99818.19;5047389;28;20063;-88
2023/03/18 00:25:14;;;;;;;10.40;3.00;;;13.60;75.00;;;13.02;59.15;99820.63;5046834;28;20041;-88
2023/03/18 00:27:43;;;;;;;9.48;3.22;;;13.60;74.70;;;13.01;59.12;99825.16;5047259;28;20037;-88
2023/03/18 00:30:12;;;;;;;6.85;2.72;;;13.60;75.10;;;13.01;59.47;99824.34;5042772;28;20041;-87
2023/03/18 00:32:40;;;;;;;8.38;3.47;;;13.60;75.40;;;13.00;59.27;99825.41;5030526;28;20048;-89
2023/03/18 00:35:08;;;;;;;8.90;3.20;;;13.60;75.00;;;13.00;59.10;99833.44;5025046;28;20399;-89
2023/03/18 00:37:35;;;;;;;7.80;2.70;;;13.60;75.00;;;12.99;59.31;99831.81;5043360;28;20120;-88
2023/03/18 00:40:09;;;;;;;6.35;3.10;;;13.60;75.00;;;12.99;59.80;99834.50;5023290;28;20599;-88
2023/03/18 00:42:46;;;;;;;7.90;2.80;;;13.60;75.60;;;12.98;59.62;99832.84;5023692;28;20049;-88
2023/03/18 00:45:17;;;;;;;7.80;3.20;;;13.60;75.30;;;12.99;59.72;99845.22;5031304;28;20049;-89
2023/03/18 00:47:47;;;;;;;;;;;13.60;75.50;;;12.97;59.74;99834.72;5024924;28;20505;-88
2023/03/18 00:50:14;;;;;;;10.80;3.35;;;13.70;75.60;;;12.97;59.38;99828.56;5047461;28;19968;-88
2023/03/18 00:52:41;;;;;;;10.50;3.42;;;13.60;75.10;;;12.96;59.38;99822.41;5046383;28;20107;-88
2023/03/18 00:55:10;;;;;;;8.80;3.38;;;13.60;75.00;;;12.97;59.34;99825.88;5039455;28;20052;-88
2023/03/18 00:57:37;;;;;;;9.85;3.05;;;13.50;75.10;;;12.97;59.30;99820.53;5021628;28;20095;-89
2023/03/18 01:00:06;;;;;;;10.70;3.33;;;13.60;75.10;;;12.96;59.71;99822.41;5029469;28;20132;-88
2023/03/18 01:02:35;;;;;;;7.07;3.28;;;13.60;75.40;;;12.97;59.07;99824.03;5026833;28;20224;-88
2023/03/18 01:05:03;;;;;;;8.68;3.20;;;13.50;74.90;;;12.95;59.29;99820.78;5023929;28;20053;-88
2023/03/18 01:07:30;;;;;;;10.57;3.63;;;13.60;75.00;;;12.96;59.18;99818.91;5046591;28;20119;-89
2023/03/18 01:09:57;;;;;;;10.52;3.83;;;13.60;75.00;;;12.94;59.62;99824.53;5031468;28;20531;-88
2023/03/18 01:12:25;;;;;;;9.13;3.20;;;13.60;75.50;;;12.94;59.25;99808.47;5023061;28;20135;-88
2023/03/18 01:14:52;;;;;;;12.38;3.30;;;13.50;75.10;;;12.94;59.18;99821.03;5044425;28;20103;-88
2023/03/18 01:17:20;;;;;;;11.55;3.08;;;13.50;74.90;;;12.94;59.24;99821.03;5027617;28;20525;-88
2023/03/18 01:19:48;;;;;;;9.48;3.50;;;13.50;75.10;;;12.91;59.41;99830.34;5047128;28;20040;-88
2023/03/18 01:22:16;;;;;;;9.50;3.50;;;13.50;75.30;;;12.89;59.47;99832.47;5029547;28;20662;-88
2023/03/18 01:24:47;;;;;;;;;;;13.40;75.40;;;12.88;59.80;99837.00;5026734;28;20049;-89
2023/03/18 01:27:15;;;;;;;6.38;2.92;;;13.40;75.60;;;12.85;59.63;99832.13;5032767;28;19925;-88
2023/03/18 01:29:45;;;;;;;10.00;3.63;;;13.50;75.60;;;12.85;59.77;99840.16;5023221;28;20464;-88
2023/03/18 01:32:17;;;;;;;14.93;4.07;;;13.40;75.60;;;12.85;59.45;99834.00;5029552;28;20140;-88
2023/03/18 01:34:44;;;;;;;12.25;3.50;;;13.40;75.70;;;12.84;59.98;99835.88;5028018;28;20136;-89
2023/03/18 01:37:13;;;;;;;10.20;3.63;;;13.40;75.80;;;12.83;59.83;99830.72;5029713;28;20073;-89
2023/03/18 01:39:44;;;;;;;12.05;3.45;;;13.40;76.00;;;12.83;59.84;99828.06;5025294;28;20118;-88
2023/03/18 01:42:18;;;;;;;11.98;3.97;;;13.40;75.80;;;12.83;59.78;99826.22;5028606;28;20573;-88
2023/03/18 01:44:46;;;;;;;9.32;3.72;;;13.40;75.70;;;12.82;59.53;99832.59;5028778;28;20094;-89
2023/03/18 01:47:15;;;;;;;10.75;3.72;;;13.40;75.60;;;12.83;59.65;99834.25;5028970;28;20147;-88
2023/03/18 01:49:48;;;;;;;12.77;3.70;;;13.40;75.90;;;12.81;59.86;99841.69;5031617;28;20048;-88
2023/03/18 01:52:22;;;;;;;10.77;3.15;;;13.40;75.80;;;12.83;59.86;99838.75;5049157;28;20064;-89
2023/03/18 01:54:54;;;;;;;10.55;3.50;;;13.40;76.10;;;12.82;60.01;99837.97;5032775;28;20041;-88
2023/03/18 01:57:22;;;;;;;12.35;3.53;;;13.40;76.00;;;12.82;60.00;99837.16;5047009;28;20548;-88
2023/03/18 01:59:53;;;;;;;8.63;3.33;;;13.40;76.20;;;12.83;60.38;99844.13;5033539;28;20083;-88
2023/03/18 02:02:21;;;;;;;8.83;3.40;;;13.40;76.60;;;12.83;60.47;99847.63;5044562;28;20060;-89
2023/03/18 02:04:51;;;;;;;10.38;3.53;;;13.40;76.40;;;12.85;60.64;99847.38;5028315;28;20382;-88
2023/03/18 02:07:24;;;;;;;14.50;4.22;;;13.40;76.40;;;12.84;60.58;99843.09;5048637;28;20556;-88
2023/03/18 02:09:53;;;;;;;11.15;3.42;;;13.40;76.80;;;12.85;61.18;99834.00;5032868;28;20041;-88
2023/03/18 02:12:25;;;;;;;7.85;2.92;;;13.40;77.00;;;12.86;61.24;99838.28;5031030;28;20041;-89
2023/03/18 02:14:58;;;;;;;11.88;3.75;;;13.40;77.20;;;12.85;60.40;99826.78;5035449;28;20428;-88
2023/03/18 02:17:30;;;;;;;8.50;3.30;;;13.40;76.60;;;12.86;60.41;99828.41;5046275;28;20045;-89
2023/03/18 02:20:15;;;;;;;7.95;3.20;;;13.40;76.60;;;12.88;60.45;99826.31;5033048;28;20049;-88
2023/03/18 02:22:50;;;;;;;10.73;3.35;;;13.50;76.40;;;12.89;60.15;99822.56;5026510;28;20059;-88
2023/03/18 02:25:37;;;;;;;7.47;3.78;;;13.50;76.40;;;12.89;60.64;99813.72;5030990;28;20049;-88
2023/03/18 02:28:10;;;;;;;10.57;3.67;;;13.50;76.70;;;12.88;61.35;99812.94;5027628;28;20041;-88
2023/03/18 02:30:42;;;;;;;8.60;3.05;;;13.50;77.30;;;12.88;60.94;99815.59;5031033;28;20040;-88
2023/03/18 02:33:12;;;;;;;7.40;3.10;;;13.50;76.90;;;12.89;60.38;99814.53;5030313;28;20539;-88
2023/03/18 02:35:40;;;;;;;8.05;3.15;;;13.50;76.30;;;12.92;60.26;99812.41;5031942;28;20049;-88
2023/03/18 02:38:07;;;;;;;11.10;3.70;;;13.50;76.60;;;12.92;60.69;99809.75;5032302;28;20404;-88
2023/03/18 02:40:38;;;;;;;9.20;3.58;;;13.50;76.60;;;12.92;61.63;99815.09;5041924;28;20466;-88
2023/03/18 02:43:21;;;;;;;9.35;3.80;;;13.50;77.50;;;12.91;60.77;99819.66;5032154;28;20140;-89
2023/03/18 02:46:26;;;;;;;6.90;3.15;;;13.50;76.80;;;12.91;60.95;99830.34;5029876;28;20496;-89
2023/03/18 02:48:54;;;;;;;8.43;3.42;;;13.50;76.80;;;12.90;60.61;99828.72;5038337;28;20047;-88
2023/03/18 02:51:23;;;;;;;9.38;3.45;;;13.50;76.60;;;12.89;60.31;99822.56;5030701;28;20029;-89
2023/03/18 02:53:52;;;;;;;8.73;2.92;;;13.50;76.40;;;12.89;60.14;99832.47;5029107;28;20527;-89
2023/03/18 02:56:19;;;;;;;8.40;3.40;;;13.50;76.20;;;12.87;60.29;99824.66;5030680;28;20037;-88
2023/03/18 02:58:47;;;;;;;11.32;4.00;;;13.40;76.40;;;12.85;60.51;99826.78;5040923;28;20127;-89
2023/03/18 03:01:16;;;;;;;12.75;3.78;;;13.40;76.50;;;12.84;60.62;99835.06;5027481;28;20126;-88
2023/03/18 03:03:43;;;;;;;7.53;3.50;;;13.50;76.80;;;12.81;61.00;99836.34;5032360;28;20045;-88
2023/03/18 03:06:12;;;;;;;14.48;3.40;;;13.40;77.20;;;12.79;60.84;99832.31;5030268;28;20044;-88
2023/03/18 03:08:40;;;;;;;8.38;3.80;;;13.30;77.00;;;12.77;60.95;99843.22;5030368;28;20041;-88
2023/03/18 03:11:09;;;;;;;11.85;3.55;;;13.30;77.10;;;12.74;61.21;99846.41;5049917;28;20455;-88
2023/03/18 03:13:39;;;;;;;10.63;3.28;;;13.50;77.40;;;12.71;61.21;99854.88;5030577;28;20045;-88
2023/03/18 03:16:11;;;;;;;10.15;3.55;;;13.30;77.30;;;12.70;61.13;99857.81;5041169;28;20045;-88
2023/03/18 03:18:39;;;;;;;10.80;3.60;;;13.20;77.40;;;12.68;61.12;99852.69;5029167;28;20049;-88
2023/03/18 03:21:07;;;;;;;9.15;3.60;;;13.20;77.40;;;12.67;61.59;99851.06;5036178;28;20518;-87
2023/03/18 03:23:35;;;;;;;8.73;3.50;;;13.20;77.60;;;12.63;61.55;99845.38;5032694;28;20055;-89
2023/03/18 03:26:03;;;;;;;11.18;3.83;;;13.20;77.80;;;12.65;61.46;99849.69;5048399;28;20029;-88
2023/03/18 03:28:31;;;;;;;10.93;3.80;;;13.20;77.80;;;12.62;62.01;99851.78;5027238;28;20195;-88
2023/03/18 03:30:59;;;;;;;7.72;3.13;;;13.20;78.40;;;12.61;61.99;99847.50;5026122;28;20413;-88
2023/03/18 03:33:28;;;;;;;11.02;4.15;;;13.20;78.40;;;12.61;61.89;99857.38;5030344;28;20084;-89
2023/03/18 03:35:57;;;;;;;12.10;3.63;;;13.20;78.40;;;12.59;62.36;99852.28;5025685;28;20060;-89
2023/03/18 03:38:26;;;;;;;8.95;3.30;;;13.20;78.60;;;12.59;62.12;99848.78;5029887;28;20702;-88
2023/03/18 03:40:55;;;;;;;8.40;3.50;;;13.20;78.40;;;12.57;61.85;99850.88;5028520;28;20119;-88
2023/03/18 03:43:22;;;;;;;9.00;3.63;;;13.10;78.50;;;12.56;62.00;99850.06;5030570;28;20048;-88
2023/03/18 03:45:50;;;;;;;9.00;3.70;;;13.10;78.60;;;12.56;62.08;99854.63;5035471;28;20045;-88
2023/03/18 03:48:17;;;;;;;13.05;4.55;;;13.10;78.70;;;12.53;62.26;99847.06;5046398;28;20045;-88
2023/03/18 03:50:46;;;;;;;11.13;3.83;;;13.10;78.80;;;12.51;62.24;99863.34;5031614;28;20049;-89
2023/03/18 03:53:13;;;;;;;7.00;3.50;;;13.10;78.80;;;12.52;62.40;99864.16;5031384;28;20119;-89
2023/03/18 03:55:41;;;;;;;8.98;4.22;;;13.10;78.90;;;12.49;62.29;99860.13;5030123;28;20037;-88
2023/03/18 03:58:09;;;;;;;11.35;4.07;;;13.00;78.90;;;12.47;62.62;99858.72;5028600;28;20037;-88
2023/03/18 04:00:37;;;;;;;9.00;4.10;;;13.00;79.00;;;12.48;62.55;99868.38;5047450;28;20169;-88
2023/03/18 04:03:04;;;;;;;9.52;4.07;;;13.00;79.10;;;12.45;62.63;99872.34;5029184;28;20068;-88
2023/03/18 04:05:31;;;;;;;10.82;3.90;;;13.00;79.10;;;12.44;62.79;99878.72;5030225;28;20073;-88
2023/03/18 04:08:02;;;;;;;10.63;4.07;;;13.00;79.30;;;12.42;62.74;99880.03;5029314;28;20044;-88
2023/03/18 04:10:37;;;;;;;11.07;4.13;;;13.00;79.30;;;12.42;62.94;99885.38;5027134;28;20051;-87
2023/03/18 04:13:07;;;;;;;13.70;4.00;;;13.00;79.60;;;12.40;62.83;99882.94;5029458;28;20094;-88
2023/03/18 04:15:35;;;;;;;8.38;3.90;;;13.10;79.50;;;12.38;63.06;99880.47;5029869;28;20052;-89
2023/03/18 04:18:08;;;;;;;13.07;4.50;;;12.90;79.70;;;12.40;63.05;99882.94;5026222;28;20517;-89
2023/03/18 04:20:38;;;;;;;14.10;4.82;;;13.00;79.60;;;12.40;64.17;99882.94;5027666;28;20073;-88
2023/03/18 04:23:15;;;;;;;10.80;5.00;;;12.90;81.00;;;12.39;63.85;99892.00;5029191;28;20082;-88
2023/03/18 04:25:42;;;;;;;10.32;4.65;;;12.90;80.50;;;12.39;63.61;99892.00;5023534;28;20111;-89
2023/03/18 04:28:09;;;;;;;11.02;5.68;;;12.90;80.40;;;12.39;64.85;99892.00;5044146;28;20152;-88
2023/03/18 04:30:37;;;;;;;9.63;5.10;;;12.90;81.80;;;12.37;64.69;99897.59;5022888;28;20109;-88
2023/03/18 04:33:09;;;;;;;13.05;5.03;;;13.10;81.50;;;12.37;64.35;99900.25;5026133;28;20174;-88
2023/03/18 04:35:41;;;;;;;8.68;4.78;;;12.90;80.80;;;12.38;64.10;99903.75;5027819;28;20068;-88
2023/03/18 04:38:09;;;;;;;11.63;4.60;;;12.90;80.60;;;12.37;63.87;99897.59;5046485;28;20159;-89
2023/03/18 04:40:37;;;;;;;13.50;5.40;;;13.00;80.50;;;12.39;64.33;99900.00;5027089;28;20055;-88
2023/03/18 04:43:05;;;;;;;11.65;5.82;;;12.90;81.20;;;12.37;65.25;99905.59;5034190;28;20036;-89
2023/03/18 04:45:33;;;;;;;13.40;5.50;;;13.00;81.70;;;12.37;65.69;99908.28;5029430;28;20044;-89
2023/03/18 04:48:03;;;;;;;12.85;5.90;;;13.00;82.20;;;12.37;66.12;99900.25;5030422;28;20048;-88
2023/03/18 04:50:34;;;;;;;12.75;5.97;;;13.00;82.70;;;12.38;65.86;99904.56;5046245;28;20092;-88
2023/03/18 04:53:02;;;;;;;9.23;5.38;;;13.00;82.80;;;12.41;65.32;99910.50;5029056;28;20048;-88
2023/03/18 04:55:31;;;;;;;11.00;5.65;;;13.00;82.00;;;12.41;65.48;99911.31;5029510;28;20048;-88
2023/03/18 04:58:01;;;;;;;13.82;6.50;;;13.00;82.10;;;12.40;66.63;99909.69;5028382;28;20631;-88
2023/03/18 05:00:31;;;;;;;13.07;6.72;;;13.00;83.30;;;12.41;67.21;99913.97;5029579;28;20123;-89
2023/03/18 05:03:12;;;;;;;15.52;6.32;;;13.00;83.80;;;12.43;66.06;99913.72;5027945;28;20466;-88
2023/03/18 05:05:40;;;;;;;11.52;5.65;;;13.00;82.60;;;12.42;65.60;99912.91;5037569;28;20051;-89
2023/03/18 05:08:11;;;;;;;12.93;6.18;;;13.00;82.20;;;12.44;66.00;99910.00;5030011;28;20127;-89
2023/03/18 05:10:39;;;;;;;12.82;6.30;;;13.00;82.60;;;12.43;66.31;99911.06;5027027;28;20118;-89
2023/03/18 05:13:09;;;;;;;14.43;6.40;;;13.00;82.80;;;12.44;66.41;99910.00;5024049;28;20098;-89
2023/03/18 05:15:37;;;;;;;13.50;6.45;;;13.00;83.20;;;12.42;67.00;99920.13;5025154;28;20517;-88
2023/03/18 05:18:04;;;;;;;11.60;5.97;;;13.00;83.40;;;12.43;66.03;99922.56;5024886;28;20128;-88
2023/03/18 05:20:32;;;;;;;12.23;6.45;;;13.00;82.40;;;12.45;67.12;99928.50;5025170;28;20072;-88
2023/03/18 05:23:00;;;;;;;17.08;7.05;;;13.00;83.70;;;12.44;67.18;99929.53;5028561;28;20045;-88
2023/03/18 05:25:41;;;;;;;14.18;7.25;;;13.00;83.60;;;12.43;67.17;99924.44;5027924;28;20049;-86
2023/03/18 05:28:11;;;;;;;13.98;6.55;;;13.20;83.50;;;12.46;66.14;99932.00;5031267;28;20049;-89
2023/03/18 05:30:46;;;;;;;10.57;6.05;;;13.10;82.90;;;12.45;66.19;99931.19;5025330;28;20045;-85
2023/03/18 05:33:15;;;;;;;16.40;6.55;;;13.10;82.50;;;12.46;66.79;99926.63;5031008;28;20059;-82
2023/03/18 05:35:53;;;;;;;14.32;7.15;;;13.10;83.40;;;12.46;67.23;99919.44;5027718;28;20545;-83
2023/03/18 05:38:26;;;;;;;15.60;6.55;;;13.10;83.70;;;12.46;67.39;99921.28;5033694;28;20053;-83
2023/03/18 05:40:53;;;;;;;10.52;6.43;;;13.10;83.90;;;12.45;67.55;99925.03;5033444;28;20040;-82
2023/03/18 05:43:28;;;;;;;10.65;6.18;;;13.00;83.70;;;12.46;67.33;99929.31;5033044;28;20056;-83
2023/03/18 05:45:57;;;;;;;12.32;6.53;;;13.10;83.50;;;12.48;66.79;99927.22;5032997;28;20045;-83
2023/03/18 05:48:54;;;;;;;12.02;6.07;;;13.10;83.40;;;12.46;67.08;99935.47;5027116;28;20513;-82
2023/03/18 05:51:25;;;;;;;12.75;6.30;;;13.30;83.70;;;12.47;67.11;99944.31;5046599;22;20079;-84
2023/03/18 05:53:53;;;;;;;14.05;6.60;;;13.10;83.70;;;12.49;67.82;99950.22;5046062;28;20084;-84
2023/03/18 05:56:27;;;;;;;12.43;6.72;;;13.10;84.50;;;12.46;67.54;99950.72;5051966;28;20058;-84
2023/03/18 05:59:00;;;;;;;11.43;6.05;;;13.10;83.90;;;12.47;67.34;99944.31;5049227;28;20052;-84
2023/03/18 06:01:38;;;;;;;10.38;5.57;;;13.10;84.10;;;12.48;66.98;99948.59;5057563;28;20052;-84
2023/03/18 06:04:07;;;;;;;11.13;5.70;;;13.10;83.50;;;12.46;67.41;99958.75;5045522;28;20498;-84
2023/03/18 06:06:36;;;;;;;14.88;6.70;;;13.00;83.80;;;12.46;67.04;99959.53;5041066;28;20073;-84
2023/03/18 06:09:04;;;;;;;11.70;6.50;;;13.10;83.60;;;12.46;67.18;99959.53;5045346;28;20049;-80
2023/03/18 06:11:31;;;;;;;10.88;6.50;;;13.10;83.90;;;12.44;68.08;99961.63;5068935;28;20144;-83
2023/03/18 06:14:00;;;;;;;18.05;6.68;;;13.00;84.30;;;12.42;67.75;99962.94;5043605;28;20042;-82
2023/03/18 06:16:27;;;;;;;11.38;5.88;;;13.00;84.00;;;12.44;67.06;99958.13;5044646;28;20045;-82
2023/03/18 06:18:56;;;;;;;10.02;5.30;;;13.00;83.30;;;12.46;66.58;99966.75;5039643;28;20249;-80
2023/03/18 06:21:24;;;;;;;12.10;6.10;;;13.10;83.10;;;12.45;67.30;99971.31;5053460;28;20050;-80
2023/03/18 06:23:51;;;;;;;13.98;5.75;;;13.10;83.90;;;12.46;66.60;99972.09;5049972;28;20052;-81
2023/03/18 06:26:18;;;;;;;10.23;5.90;;;13.10;83.20;;;12.48;67.45;99980.69;5036072;28;20057;-80
2023/03/18 06:28:48;;;;;;;10.32;5.93;;;13.10;83.90;;;12.46;67.34;99978.28;5058973;28;20056;-82
2023/03/18 06:31:18;;;;;;;8.73;5.30;;;13.10;83.80;;;12.47;67.12;99979.06;5048804;28;20160;-81
2023/03/18 06:33:46;;;;;;;11.95;6.35;;;13.10;83.50;;;12.44;67.57;99974.19;5052945;28;20047;-86
2023/03/18 06:36:16;;;;;;;10.27;5.75;;;13.10;83.90;;;12.46;67.32;99974.78;5044733;28;20057;-86
2023/03/18 06:38:49;;;;;;;9.82;6.05;;;13.10;83.70;;;12.49;66.92;99987.66;5042695;28;20082;-84
2023/03/18 06:41:18;;;;;;;11.15;5.43;;;13.10;83.30;;;12.49;67.44;99998.38;5062187;28;20137;-86
2023/03/18 06:43:58;;;;;;;8.77;5.75;;;13.10;84.10;;;12.46;67.54;99996.19;5039765;28;20131;-87
2023/03/18 06:47:23;;;;;;;11.70;6.65;;;13.10;84.00;;;12.46;67.37;99993.50;5039281;28;20042;-86
2023/03/18 06:50:17;;;;;;;12.75;6.28;;;13.00;83.80;;;12.48;67.52;99991.41;5051178;28;20261;-88
2023/03/18 06:52:47;;;;;;;9.20;6.00;;;13.10;84.00;;;12.49;67.60;99993.00;5035675;28;20045;-89
2023/03/18 06:55:18;;;;;;;11.57;5.80;;;13.10;84.10;;;12.50;67.63;99994.66;5044537;28;20049;-89
2023/03/18 06:57:46;;;;;;;9.23;4.90;;;13.10;84.30;;;12.50;67.68;99989.31;5037186;28;20049;-90
2023/03/18 07:00:20;;;;;;;11.65;6.10;;;13.10;84.20;;;12.49;68.21;99993.00;5045451;28;20051;-90
2023/03/18 07:02:53;;;;;;;14.60;6.18;;;13.10;84.80;;;12.51;67.70;99996.28;5073128;28;20040;-89
2023/03/18 07:05:25;;;;;;;10.25;5.85;;;13.10;84.30;;;12.53;67.38;99988.81;5039870;28;20079;-89
2023/03/18 07:07:53;;;;;;;13.55;6.13;;;13.10;83.70;;;12.54;67.59;99995.78;5039771;28;20029;-88
2023/03/18 07:10:27;;;;;;;11.57;5.80;;;13.20;84.10;;;12.55;67.69;99994.78;5043232;28;20033;-89
2023/03/18 07:13:00;;;;;;;14.02;6.07;;;13.30;84.40;;;12.56;66.98;100002.56;5041248;28;20524;-88
2023/03/18 07:15:28;;;;;;;10.27;5.63;;;13.20;83.50;;;12.59;67.19;100009.28;5045161;28;20044;-89
2023/03/18 07:17:59;;;;;;;10.65;6.00;;;13.20;83.50;;;12.58;67.88;100004.97;5046070;28;20524;-89
2023/03/18 07:20:27;;;;;;;12.98;5.95;;;13.20;84.40;;;12.57;67.83;100006.84;5037185;28;20072;-86
2023/03/18 07:22:54;;;;;;;9.77;5.40;;;13.20;84.10;;;12.58;67.13;100005.78;5039874;28;20053;-91
2023/03/18 07:25:22;;;;;;;10.48;6.15;;;13.20;83.60;;;12.60;67.03;100011.75;5051270;28;20050;-91
2023/03/18 07:27:49;;;;;;;11.68;5.82;;;13.20;83.50;;;12.62;67.64;100011.50;5049552;28;20048;-88
2023/03/18 07:30:20;;;;;;;12.35;6.63;;;13.30;84.20;;;12.65;68.80;100012.91;5067445;28;20405;-87
2023/03/18 07:32:48;;;;;;;10.10;5.60;;;13.30;85.10;;;12.68;69.01;100009.72;5044564;28;20489;-91
2023/03/18 07:35:17;;;;;;;10.55;5.70;;;13.30;85.10;;;12.70;69.18;100003.09;5060439;28;20045;-91
2023/03/18 07:37:44;;;;;;;11.10;5.80;;;13.40;85.30;;;12.76;69.23;100018.22;5066811;28;20081;-90
2023/03/18 07:40:13;;;;;;;14.35;6.10;;;13.40;85.40;;;12.83;69.30;100020.75;5044799;28;20049;-90
2023/03/18 07:42:40;;;;;;;10.80;5.72;;;13.50;84.90;;;12.88;68.60;100019.00;5043804;28;20048;-91
2023/03/18 07:45:10;;;;;;;8.50;4.75;;;13.60;84.60;;;12.94;68.52;100021.78;5048331;28;20140;-91
2023/03/18 07:47:37;;;;;;;11.35;5.25;;;13.60;84.40;;;13.00;68.50;100026.19;5037626;28;20044;-91
2023/03/18 07:50:05;;;;;;;10.05;5.35;;;13.70;84.60;;;13.06;68.09;100020.66;5040283;28;20052;-91
2023/03/18 07:52:34;;;;;;;11.00;5.32;;;13.80;84.10;;;13.13;68.36;100026.72;5044177;28;20436;-91
2023/03/18 07:55:02;;;;;;;12.05;5.00;;;13.90;84.40;;;13.21;68.06;100020.16;5040804;28;20058;-91
2023/03/18 07:57:30;;;;;;;10.93;5.07;;;13.90;84.00;;;13.31;68.74;100036.44;5039149;28;20118;-89
2023/03/18 07:59:57;;;;;;;11.23;4.78;;;14.00;84.50;;;13.40;68.18;100032.31;5039265;28;20041;-91
2023/03/18 08:02:26;;;;;;;10.70;5.00;;;14.10;84.00;;;13.50;67.89;100030.88;5042787;28;20083;-90
2023/03/18 08:05:18;;;;;;;11.35;5.40;;;14.20;83.50;;;13.59;67.26;100038.28;5045239;28;20059;-91
2023/03/18 08:07:47;;;;;;;10.82;5.60;;;14.30;83.10;;;13.66;67.42;100040.78;5030370;28;20049;-88
2023/03/18 08:10:14;;;;;;;9.80;5.43;;;14.40;83.30;;;13.74;67.13;100040.41;5042879;28;20044;-88
2023/03/18 08:12:42;;;;;;;9.32;5.10;;;14.50;83.10;;;13.78;66.31;100046.91;5040142;28;20446;-91
2023/03/18 08:15:11;;;;;;;11.75;5.07;;;14.50;82.40;;;13.86;66.80;100040.34;5038206;28;20051;-92
2023/03/18 08:17:38;;;;;;;8.70;4.72;;;14.60;82.50;;;13.94;66.59;100047.97;5043933;28;20052;-89
2023/03/18 08:20:07;;;;;;;9.23;4.30;;;14.70;82.20;;;14.03;66.25;100043.03;5044293;28;20049;-85
2023/03/18 08:22:34;;;;;;;7.35;4.18;;;14.70;82.00;;;14.09;66.34;100044.72;5034023;28;20046;-87
2023/03/18 08:25:03;;;;;;;8.32;4.30;;;14.90;82.00;;;14.17;65.71;100049.69;5042936;28;20080;-82
2023/03/18 08:27:30;;;;;;;9.13;4.38;;;14.90;81.60;;;14.20;64.82;100051.03;5041663;28;20505;-82
2023/03/18 08:29:57;;;;;;;10.35;4.63;;;15.00;80.70;;;14.23;65.18;100051.38;5035848;28;20136;-83
2023/03/18 08:32:26;;;;;;;10.25;4.50;;;15.00;81.00;;;14.35;66.46;100052.09;5033826;28;20053;-83
2023/03/18 08:34:53;;;;;;;8.02;4.40;;;15.10;82.00;;;14.46;64.97;100060.31;5035942;28;20048;-82
2023/03/18 08:37:21;;;;;;;10.02;5.07;;;15.20;80.70;;;14.54;64.67;100051.84;5040065;28;20045;-84
2023/03/18 08:39:48;;;;;;;7.80;3.85;;;15.30;80.30;;;14.51;62.65;100063.91;5038614;28;20069;-84
2023/03/18 08:42:17;;;;;;;8.07;4.00;;;15.30;78.60;;;14.47;63.70;100064.59;5038770;28;20103;-81
2023/03/18 08:44:45;;;;;;;13.25;4.70;;;15.30;79.60;;;14.48;63.53;100072.44;5039529;28;20051;-81
2023/03/18 08:47:12;;;;;;;11.18;4.15;;;15.30;79.20;;;14.50;64.48;100082.94;5035894;28;20659;-85
2023/03/18 08:49:39;;;;;;;10.40;4.55;;;15.30;80.70;;;14.55;64.29;100072.28;5040745;28;20041;-85
2023/03/18 08:52:06;;;;;;;8.20;4.47;;;15.30;80.00;;;14.58;63.15;100077.94;5039179;28;20053;-85
2023/03/18 08:54:34;;;;;;;7.72;4.00;;;15.40;78.90;;;14.53;63.20;100077.06;5036536;28;20136;-84
2023/03/18 08:57:01;;;;;;;10.23;4.50;;;15.40;78.80;;;14.45;62.31;100074.78;5030363;28;20044;-83
2023/03/18 08:59:30;;;;;;;8.20;4.10;;;15.20;78.00;;;14.39;63.08;100073.88;5041042;28;20051;-83
2023/03/18 09:01:57;;;;;;;8.10;4.28;;;15.20;78.80;;;14.41;64.05;100071.78;5034497;28;20045;-83
2023/03/18 09:04:24;;;;;;;8.32;4.03;;;15.20;79.70;;;14.37;62.64;100070.63;5040880;28;20051;-83
2023/03/18 09:06:51;;;;;;;9.85;4.07;;;15.20;78.50;;;14.36;63.21;100074.38;5040364;28;20041;-83
2023/03/18 09:09:19;;;;;;;7.20;3.70;;;15.20;78.90;;;14.36;62.61;100080.56;5035784;28;20529;-83
2023/03/18 09:11:47;;;;;;;6.95;3.83;;;15.20;78.40;;;14.35;62.84;100075.44;5039662;28;20421;-83
2023/03/18 09:14:14;;;;;;;8.88;3.88;;;15.20;78.40;;;14.33;62.04;100080.22;5051765;28;20409;-84
2023/03/18 09:16:44;;;;;;;7.13;3.75;;;15.30;77.80;;;14.33;63.34;100081.03;5037992;28;20044;-82
2023/03/18 09:19:12;;;;;;;7.95;4.07;;;15.10;79.10;;;14.33;62.93;100075.66;5038709;28;20116;-84
2023/03/18 09:21:39;;;;;;;9.77;4.65;;;15.10;78.80;;;14.35;61.92;100080.81;5036201;28;20037;-83
2023/03/18 09:24:06;;;;;;;8.40;3.90;;;15.10;77.80;;;14.32;62.58;100079.41;5045016;28;20044;-82
2023/03/18 09:26:33;;;;;;;9.95;4.78;;;15.10;78.40;;;14.32;63.02;100082.09;5041217;28;20055;-83
2023/03/18 09:29:00;;;;;;;9.13;4.78;;;15.10;78.60;;;14.33;63.23;100094.44;5048483;28;20044;-81
2023/03/18 09:31:28;;;;;;;7.55;4.53;;;15.10;79.00;;;14.36;62.57;100079.75;5036458;28;20052;-81
2023/03/18 09:33:56;;;;;;;8.65;4.40;;;15.20;78.20;;;14.38;63.25;100081.09;5039332;28;20048;-81
2023/03/18 09:36:23;;;;;;;6.40;4.43;;;15.20;78.80;;;14.45;62.44;100091.69;5038024;28;20451;-80
2023/03/18 09:38:50;;;;;;;8.75;4.43;;;15.20;78.20;;;14.49;62.23;100083.97;5047442;28;20502;-79
2023/03/18 09:41:32;;;;;;;10.73;4.20;;;15.30;78.20;;;14.47;62.19;100086.88;5043997;28;20045;-80
2023/03/18 09:44:14;;;;;;;7.70;4.38;;;15.30;78.00;;;14.46;62.33;100079.09;5050251;28;20044;-93
2023/03/18 09:47:14;;;;;;;7.47;4.28;;;15.20;78.00;;;14.41;61.69;100086.00;5040162;28;20497;-95
2023/03/18 09:49:56;;;;;;;6.05;3.72;;;15.20;77.30;;;14.45;62.19;100080.16;5053016;28;20136;-96
2023/03/18 09:55:04;;;;;;;8.95;4.13;;;15.30;77.60;;;14.50;61.47;100082.94;5025914;28;20473;-94
2023/03/18 09:57:36;;;;;;;6.97;4.47;;;15.30;77.10;;;14.55;62.00;100081.13;5012329;28;20048;-85
2023/03/18 10:00:10;;;;;;;10.93;4.28;;;15.30;77.70;;;14.61;62.29;100090.06;5027057;28;20045;-86
2023/03/18 10:02:42;;;;;;;8.60;4.50;;;15.40;78.10;;;14.64;61.48;100081.50;5019004;28;20045;-89
2023/03/18 10:05:17;;;;;;;8.32;4.10;;;15.40;77.00;;;14.65;61.48;100083.16;5025779;28;20120;-87
2023/03/18 10:07:50;;;;;;;7.78;3.28;;;15.40;77.00;;;14.71;61.06;100084.03;5018335;28;20128;-86
2023/03/18 10:10:25;;;;;;;6.03;3.00;;;15.50;76.70;;;14.73;60.52;100081.88;5025453;28;20037;-88
2023/03/18 10:13:02;;;;;;;7.68;3.22;;;15.50;76.20;;;14.80;60.97;100087.91;5024109;28;20049;-84
2023/03/18 10:15:36;;;;;;;8.52;3.80;;;15.60;76.60;;;14.80;59.65;100088.72;5025308;28;20576;-85
2023/03/18 10:18:12;;;;;;;6.75;3.70;;;15.60;75.20;;;14.84;60.13;100084.47;5025638;28;20042;-84
2023/03/18 10:20:55;;;;;;;9.23;3.80;;;15.60;75.80;;;14.92;61.16;100097.44;5026805;28;20120;-82
2023/03/18 10:23:38;;;;;;;7.82;3.28;;;15.70;76.80;;;14.93;59.38;100083.00;5025823;28;20046;-78
2023/03/18 10:26:14;;;;;;;7.78;3.97;;;15.70;75.00;;;14.99;60.28;100085.75;5023340;28;20099;-83
2023/03/18 10:29:19;;;;;;;8.05;4.90;;;15.70;76.10;;;15.02;60.93;100080.66;5029031;28;20052;-81